createdAt,value
2023-04-30T00:01:42.496Z,11.40
2023-04-30T00:06:44.439Z,11.30
2023-04-30T00:11:46.543Z,11.20
2023-04-30T00:16:48.395Z,11.10
2023-04-30T00:21:50.359Z,11.00
2023-04-30T00:26:52.223Z,10.90
2023-04-30T00:31:54.239Z,10.80
2023-04-30T00:36:56.142Z,10.70
2023-04-30T00:41:58.005Z,10.60
2023-04-30T00:46:59.809Z,10.50
2023-04-30T00:52:01.914Z,10.50
2023-04-30T00:57:05.748Z,10.40
2023-04-30T01:02:08.309Z,10.30
2023-04-30T01:07:10.200Z,10.30
2023-04-30T01:12:27.875Z,10.30
2023-04-30T01:17:43.683Z,10.20
2023-04-30T01:23:12.261Z,10.20
2023-04-30T01:28:19.134Z,10.10
2023-04-30T01:33:20.965Z,10.10
2023-04-30T01:38:26.747Z,10.10
2023-04-30T01:43:50.598Z,10.10
2023-04-30T01:49:01.537Z,10.10
2023-04-30T01:54:06.610Z,10.00
2023-04-30T01:59:09.144Z,9.90
2023-04-30T02:04:11.449Z,9.90
2023-04-30T02:09:13.328Z,9.90
2023-04-30T02:14:15.316Z,9.80
2023-04-30T02:19:17.096Z,9.80
2023-04-30T02:24:18.888Z,9.80
2023-04-30T02:29:20.706Z,9.70
2023-04-30T02:34:22.664Z,9.70
2023-04-30T02:39:24.616Z,9.60
2023-04-30T02:44:26.938Z,9.60
2023-04-30T02:49:29.548Z,9.50
2023-04-30T02:54:31.345Z,9.40
2023-04-30T02:59:33.195Z,9.30
2023-04-30T03:04:35.434Z,9.20
2023-04-30T03:09:38.382Z,9.10
2023-04-30T03:14:41.020Z,9.10
2023-04-30T03:19:42.824Z,9.10
2023-04-30T03:24:44.669Z,9.00
2023-04-30T03:29:46.486Z,9.00
2023-04-30T03:34:48.330Z,9.00
2023-04-30T03:39:50.129Z,9.00
2023-04-30T03:44:51.908Z,8.90
2023-04-30T03:49:55.690Z,8.90
2023-04-30T03:54:58.011Z,8.90
2023-04-30T03:59:59.915Z,8.90
2023-04-30T04:05:02.041Z,8.90
2023-04-30T04:10:03.991Z,9.00
2023-04-30T04:15:06.657Z,9.10
2023-04-30T04:20:08.958Z,9.10
2023-04-30T04:25:10.923Z,9.10
2023-04-30T04:30:13.730Z,9.20
2023-04-30T04:35:16.207Z,9.30
2023-04-30T04:40:18.210Z,9.40
2023-04-30T04:45:20.682Z,9.60
2023-04-30T04:50:22.790Z,9.70
2023-04-30T04:55:24.593Z,10.00
2023-04-30T05:00:26.838Z,10.20
2023-04-30T05:05:29.059Z,10.60
2023-04-30T05:10:30.863Z,11.00
2023-04-30T05:15:32.652Z,11.50
2023-04-30T05:20:34.468Z,11.90
2023-04-30T05:25:36.629Z,12.30
2023-04-30T05:30:38.479Z,12.60
2023-04-30T05:35:40.396Z,13.00
2023-04-30T05:40:42.194Z,13.50
2023-04-30T05:45:44.042Z,13.90
2023-04-30T05:50:45.932Z,14.00
2023-04-30T05:55:47.828Z,14.30
2023-04-30T06:00:51.947Z,14.30
2023-04-30T06:05:54.274Z,14.70
2023-04-30T06:10:56.305Z,14.80
2023-04-30T06:15:58.150Z,14.70
2023-04-30T06:21:00.112Z,14.70
2023-04-30T06:26:01.937Z,14.40
2023-04-30T06:31:03.994Z,14.50
2023-04-30T06:36:06.187Z,14.60
2023-04-30T06:41:08.079Z,14.50
2023-04-30T06:46:10.412Z,14.30
2023-04-30T06:51:12.256Z,14.10
2023-04-30T06:56:14.192Z,14.00
2023-04-30T07:01:16.032Z,13.80
2023-04-30T07:06:18.325Z,13.70
2023-04-30T07:11:20.178Z,13.60
2023-04-30T07:16:22.482Z,13.60
2023-04-30T07:21:25.562Z,13.60
2023-04-30T07:26:27.471Z,13.70
2023-04-30T07:31:29.756Z,13.80
2023-04-30T07:36:31.902Z,13.90
2023-04-30T07:41:33.754Z,14.00
2023-04-30T07:46:36.585Z,14.00
2023-04-30T07:51:38.636Z,14.10
2023-04-30T07:56:40.787Z,14.20
2023-04-30T08:01:42.759Z,14.20
2023-04-30T08:06:44.915Z,14.40
2023-04-30T08:11:46.928Z,14.50
2023-04-30T08:16:48.824Z,14.60
2023-04-30T08:21:50.815Z,14.70
2023-04-30T08:26:54.262Z,14.80
2023-04-30T08:31:59.180Z,14.90
2023-04-30T08:37:01.547Z,15.10
2023-04-30T08:42:04.641Z,15.20
2023-04-30T08:47:07.322Z,15.40
2023-04-30T08:52:09.698Z,15.70
2023-04-30T08:57:11.553Z,15.90
2023-04-30T09:02:13.524Z,16.10
2023-04-30T09:07:15.863Z,15.90
2023-04-30T09:12:19.832Z,15.80
2023-04-30T09:17:22.996Z,15.80
2023-04-30T09:22:25.059Z,15.90
2023-04-30T09:27:27.055Z,16.30
2023-04-30T09:32:29.108Z,16.40
2023-04-30T09:37:41.085Z,16.60
2023-04-30T09:42:59.086Z,17.10
2023-04-30T09:48:12.788Z,17.60
2023-04-30T09:53:19.218Z,18.30
2023-04-30T09:58:21.131Z,18.90
2023-04-30T10:03:29.232Z,19.40
2023-04-30T10:08:40.103Z,19.40
2023-04-30T10:13:45.020Z,19.70
2023-04-30T10:18:52.191Z,19.90
2023-04-30T10:23:54.871Z,20.10
2023-04-30T10:28:58.951Z,20.60
2023-04-30T10:34:12.818Z,20.90
2023-04-30T10:39:19.473Z,21.20
2023-04-30T10:44:25.696Z,21.10
2023-04-30T10:49:27.505Z,20.90
2023-04-30T10:54:31.528Z,21.10
2023-04-30T10:59:34.718Z,20.40
2023-04-30T11:05:12.774Z,19.60
2023-04-30T11:10:15.015Z,19.50
2023-04-30T11:15:27.631Z,19.10
2023-04-30T11:20:29.826Z,18.70
2023-04-30T11:25:39.879Z,18.40
2023-04-30T11:30:50.704Z,18.80
2023-04-30T11:35:53.596Z,18.90
2023-04-30T11:40:57.332Z,19.00
2023-04-30T11:46:03.616Z,19.10
2023-04-30T11:51:24.134Z,19.60
2023-04-30T11:56:27.591Z,19.20
2023-04-30T12:01:29.598Z,18.70
2023-04-30T12:06:31.776Z,18.40
2023-04-30T12:11:34.494Z,18.30
2023-04-30T12:16:50.594Z,18.40
2023-04-30T12:21:55.084Z,18.40
2023-04-30T12:27:00.218Z,18.70
2023-04-30T12:32:02.047Z,18.80
2023-04-30T12:37:03.875Z,19.10
2023-04-30T12:42:05.801Z,19.60
2023-04-30T12:47:08.175Z,19.30
2023-04-30T12:52:11.707Z,18.90
2023-04-30T12:57:13.520Z,18.40
2023-04-30T13:02:15.397Z,18.30
2023-04-30T13:07:17.510Z,18.20
2023-04-30T13:12:20.143Z,18.20
2023-04-30T13:17:22.632Z,18.30
2023-04-30T13:22:29.438Z,18.90
2023-04-30T13:27:31.232Z,18.90
2023-04-30T13:32:33.120Z,18.60
2023-04-30T13:37:35.863Z,18.30
2023-04-30T13:42:41.456Z,18.30
2023-04-30T13:47:43.351Z,18.70
2023-04-30T13:52:45.553Z,19.10
2023-04-30T13:57:47.628Z,19.20
2023-04-30T14:02:49.596Z,19.40
2023-04-30T14:07:51.458Z,19.40
2023-04-30T14:12:53.901Z,19.40
2023-04-30T14:17:55.749Z,19.80
2023-04-30T14:22:57.650Z,19.60
2023-04-30T14:27:59.524Z,19.70
2023-04-30T14:33:01.389Z,19.70
2023-04-30T14:38:03.663Z,19.60
2023-04-30T14:43:05.586Z,19.60
2023-04-30T14:48:07.506Z,19.50
2023-04-30T14:53:11.341Z,19.60
2023-04-30T14:58:13.155Z,19.60
2023-04-30T15:03:15.086Z,19.40
2023-04-30T15:08:17.327Z,19.20
2023-04-30T15:13:19.478Z,18.90
2023-04-30T15:18:21.514Z,18.80
2023-04-30T15:23:23.382Z,18.80
2023-04-30T15:28:25.262Z,18.70
2023-04-30T15:33:28.803Z,18.60
2023-04-30T15:38:31.458Z,18.50
2023-04-30T15:43:33.479Z,18.40
2023-04-30T15:48:35.428Z,18.30
2023-04-30T15:53:39.916Z,18.20
2023-04-30T15:58:41.876Z,18.00
2023-04-30T16:03:43.873Z,17.80
2023-04-30T16:08:50.068Z,17.60
2023-04-30T16:13:52.091Z,17.40
2023-04-30T16:18:54.062Z,17.30
2023-04-30T16:23:55.911Z,17.30
2023-04-30T16:28:57.691Z,17.20
2023-04-30T16:33:59.521Z,17.20
2023-04-30T16:39:01.340Z,17.00
2023-04-30T16:44:03.282Z,17.00
2023-04-30T16:49:05.069Z,16.90
2023-04-30T16:54:06.997Z,16.90
2023-04-30T16:59:08.861Z,16.80
2023-04-30T17:04:12.203Z,16.70
2023-04-30T17:09:14.011Z,16.60
2023-04-30T17:14:16.214Z,16.50
2023-04-30T17:19:18.109Z,16.40
2023-04-30T17:24:19.919Z,16.30
2023-04-30T17:29:22.365Z,16.30
2023-04-30T17:34:24.162Z,16.10
2023-04-30T17:39:26.020Z,16.10
2023-04-30T17:44:28.263Z,15.90
2023-04-30T17:49:30.203Z,15.70
2023-04-30T17:54:32.106Z,15.50
2023-04-30T17:59:34.048Z,15.40
2023-04-30T18:04:36.210Z,15.10
2023-04-30T18:09:38.143Z,15.00
2023-04-30T18:14:40.437Z,14.70
2023-04-30T18:19:44.541Z,14.50
2023-04-30T18:24:46.477Z,14.30
2023-04-30T18:29:49.580Z,14.00
2023-04-30T18:34:51.365Z,13.80
2023-04-30T18:39:53.590Z,13.70
2023-04-30T18:44:57.153Z,13.50
2023-04-30T18:49:59.141Z,13.30
2023-04-30T18:55:01.264Z,13.10
2023-04-30T19:00:04.002Z,12.90
2023-04-30T19:05:06.034Z,12.80
2023-04-30T19:10:08.172Z,12.60
2023-04-30T19:15:14.914Z,12.50
2023-04-30T19:20:17.325Z,12.30
2023-04-30T19:25:19.281Z,12.20
2023-04-30T19:30:21.062Z,12.10
2023-04-30T19:35:22.890Z,12.00
2023-04-30T19:40:24.696Z,12.00
2023-04-30T19:45:26.682Z,11.90
2023-04-30T19:50:28.470Z,11.90
2023-04-30T19:55:31.739Z,11.70
2023-04-30T20:00:37.983Z,11.70
2023-04-30T20:05:40.398Z,11.50
2023-04-30T20:10:43.756Z,11.40
2023-04-30T20:15:45.982Z,11.30
2023-04-30T20:20:48.049Z,11.20
2023-04-30T20:25:50.296Z,11.10
2023-04-30T20:30:52.119Z,11.10
2023-04-30T20:35:53.912Z,10.90
2023-04-30T20:40:58.051Z,10.80
2023-04-30T20:45:59.962Z,10.70
2023-04-30T20:51:01.766Z,10.60
2023-04-30T20:56:04.383Z,10.60
2023-04-30T21:01:06.870Z,10.50
2023-04-30T21:06:08.888Z,10.50
2023-04-30T21:11:10.846Z,10.30
2023-04-30T21:16:13.975Z,10.20
2023-04-30T21:21:16.954Z,10.10
2023-04-30T21:26:18.980Z,10.00
2023-04-30T21:31:20.923Z,10.00
2023-04-30T21:36:22.840Z,10.00
2023-04-30T21:41:25.244Z,10.00
2023-04-30T21:46:27.311Z,10.00
2023-04-30T21:51:29.245Z,9.90
2023-04-30T21:56:31.022Z,9.90
2023-04-30T22:01:32.838Z,9.80
2023-04-30T22:06:35.000Z,9.80
2023-04-30T22:11:36.945Z,9.80
2023-04-30T22:16:39.021Z,9.70
2023-04-30T22:21:41.070Z,9.60
2023-04-30T22:26:42.854Z,9.50
2023-04-30T22:31:44.720Z,9.40
2023-04-30T22:36:46.741Z,9.40
2023-04-30T22:41:50.615Z,9.30
2023-04-30T22:46:53.449Z,9.20
2023-04-30T22:51:55.464Z,9.10
2023-04-30T22:56:58.441Z,9.00
2023-04-30T23:02:00.774Z,8.90
2023-04-30T23:07:04.004Z,9.00
2023-04-30T23:12:09.127Z,8.90
2023-04-30T23:17:11.068Z,8.90
2023-04-30T23:22:13.025Z,8.90
2023-04-30T23:27:14.980Z,8.90
2023-04-30T23:32:16.883Z,8.80
2023-04-30T23:37:18.700Z,8.70
2023-04-30T23:42:20.614Z,8.70
2023-04-30T23:47:22.996Z,8.70
2023-04-30T23:52:24.989Z,8.60
